Time;durP1;ratioP1;P1;durP2;ratioP2;P2;SDS_P1;SDS_P2;PMS_P1;PMS_P2;Temp;Humidity;BMP_temperature;BMP_pressure;BME280_temperature;BME280_humidity;BME280_pressure;Samples;Min_cycle;Max_cycle;Signal;HPM_P1;HPM_P2
2022/05/04 00:01:04;;;;;;;24.40;19.27;;;;;;;;;;5050602;28;20048;-71
2022/05/04 00:04:08;;;;;;;28.48;18.45;;;;;;;;;;5050534;28;20056;-71
2022/05/04 00:07:12;;;;;;;25.58;18.92;;;;;;;;;;5051530;28;20040;-71
2022/05/04 00:10:17;;;;;;;29.58;19.23;;;;;;;;;;5051553;28;20389;-71
2022/05/04 00:13:21;;;;;;;24.02;18.60;;;;;;;;;;5051295;28;20045;-71
2022/05/04 00:16:25;;;;;;;25.73;18.60;;;;;;;;;;5051030;28;20052;-71
2022/05/04 00:19:30;;;;;;;27.50;17.63;;;;;;;;;;5050961;28;20297;-71
2022/05/04 00:22:34;;;;;;;27.23;18.52;;;;;;;;;;5051184;28;20500;-71
2022/05/04 00:25:39;;;;;;;25.63;17.95;;;;;;;;;;5051169;28;20044;-71
2022/05/04 00:28:43;;;;;;;24.77;17.42;;;;;;;;;;5050826;28;20052;-70
2022/05/04 00:31:47;;;;;;;22.60;17.52;;;;;;;;;;5050239;28;20461;-71
2022/05/04 00:34:52;;;;;;;22.60;17.48;;;;;;;;;;5050186;28;20060;-71
2022/05/04 00:37:56;;;;;;;26.40;18.38;;;;;;;;;;5050761;28;20056;-71
2022/05/04 00:41:00;;;;;;;25.48;18.15;;;;;;;;;;5050062;28;20040;-71
2022/05/04 00:44:04;;;;;;;22.30;18.00;;;;;;;;;;5050778;28;20062;-71
2022/05/04 00:47:09;;;;;;;27.15;19.00;;;;;;;;;;5049934;28;20400;-71
2022/05/04 00:50:13;;;;;;;29.65;19.83;;;;;;;;;;5050130;28;20056;-71
2022/05/04 00:53:21;;;;;;;27.33;19.55;;;;;;;;;;5050938;28;20056;-71
2022/05/04 00:56:25;;;;;;;24.75;19.02;;;;;;;;;;5050598;28;20040;-71
2022/05/04 00:59:31;;;;;;;28.08;19.80;;;;;;;;;;5052625;28;20059;-71
2022/05/04 01:02:37;;;;;;;27.75;19.33;;;;;;;;;;5054178;28;20043;-71
2022/05/04 01:05:43;;;;;;;25.30;18.40;;;;;;;;;;5054435;28;20048;-71
2022/05/04 01:08:48;;;;;;;24.70;19.23;;;;;;;;;;5054435;28;20175;-71
2022/05/04 01:11:52;;;;;;;24.00;17.90;;;;;;;;;;5054661;28;20052;-71
2022/05/04 01:14:57;;;;;;;22.85;17.45;;;;;;;;;;5053390;28;20047;-71
2022/05/04 01:18:02;;;;;;;25.77;18.77;;;;;;;;;;5054225;28;20052;-71
2022/05/04 01:21:07;;;;;;;24.90;18.73;;;;;;;;;;5053544;28;20039;-71
2022/05/04 01:24:11;;;;;;;23.42;18.13;;;;;;;;;;5054017;28;20044;-71
2022/05/04 01:27:15;;;;;;;22.08;17.65;;;;;;;;;;5054221;28;20044;-70
2022/05/04 01:30:20;;;;;;;24.85;16.73;;;;;;;;;;5054168;28;20534;-71
2022/05/04 01:33:24;;;;;;;20.90;16.17;;;;;;;;;;5054230;28;20047;-71
2022/05/04 01:36:29;;;;;;;21.48;14.82;;;;;;;;;;5053185;28;20044;-71
2022/05/04 01:39:33;;;;;;;25.77;14.70;;;;;;;;;;5054225;28;20040;-70
2022/05/04 01:42:38;;;;;;;31.77;14.90;;;;;;;;;;5053804;28;20040;-71
2022/05/04 01:45:42;;;;;;;18.08;14.32;;;;;;;;;;5054001;28;20061;-71
2022/05/04 01:48:46;;;;;;;18.63;14.90;;;;;;;;;;5053581;28;20294;-71
2022/05/04 01:51:51;;;;;;;17.30;14.55;;;;;;;;;;5053672;28;20392;-71
2022/05/04 01:54:55;;;;;;;19.42;14.38;;;;;;;;;;5041234;28;20056;-71
2022/05/04 01:58:00;;;;;;;17.27;14.60;;;;;;;;;;5053424;28;20222;-72
2022/05/04 02:01:04;;;;;;;19.60;14.52;;;;;;;;;;5053580;28;20108;-72
2022/05/04 02:04:08;;;;;;;19.15;14.10;;;;;;;;;;5053370;28;20048;-71
2022/05/04 02:07:13;;;;;;;16.63;13.60;;;;;;;;;;5053475;28;20040;-71
2022/05/04 02:10:17;;;;;;;18.23;13.48;;;;;;;;;;5052631;28;20098;-71
2022/05/04 02:13:21;;;;;;;22.88;12.80;;;;;;;;;;5053579;28;20044;-71
2022/05/04 02:16:26;;;;;;;17.40;12.63;;;;;;;;;;5053386;28;20048;-71
2022/05/04 02:19:30;;;;;;;17.88;13.07;;;;;;;;;;5053154;28;20072;-71
2022/05/04 02:22:34;;;;;;;20.55;13.77;;;;;;;;;;5052816;28;20048;-71
2022/05/04 02:25:40;;;;;;;21.75;14.95;;;;;;;;;;5052875;28;20052;-71
2022/05/04 02:28:44;;;;;;;19.23;13.07;;;;;;;;;;5053137;28;20052;-71
2022/05/04 02:31:49;;;;;;;20.63;14.07;;;;;;;;;;5052987;28;20044;-71
2022/05/04 02:38:16;;;;;;;17.88;13.50;;;;;;;;;;5052641;28;20048;-71
2022/05/04 02:41:20;;;;;;;22.35;14.98;;;;;;;;;;5040595;28;20048;-72
2022/05/04 02:44:24;;;;;;;20.08;16.38;;;;;;;;;;5028916;28;20401;-71
2022/05/04 02:47:29;;;;;;;20.73;16.73;;;;;;;;;;5052905;28;20040;-71
2022/05/04 02:50:33;;;;;;;24.20;18.70;;;;;;;;;;5051874;28;20400;-71
2022/05/04 02:53:38;;;;;;;29.77;20.25;;;;;;;;;;5052615;28;20070;-71
2022/05/04 02:56:42;;;;;;;31.30;21.02;;;;;;;;;;5051606;28;20052;-72
2022/05/04 02:59:46;;;;;;;26.40;20.73;;;;;;;;;;5052462;28;20048;-72
2022/05/04 03:02:51;;;;;;;30.83;20.58;;;;;;;;;;5051898;28;20290;-71
2022/05/04 03:05:55;;;;;;;29.05;20.48;;;;;;;;;;5051466;28;20044;-71
2022/05/04 03:09:00;;;;;;;29.15;21.15;;;;;;;;;;5051654;28;20536;-72
2022/05/04 03:12:04;;;;;;;23.73;18.98;;;;;;;;;;5052581;28;20048;-72
2022/05/04 03:15:08;;;;;;;29.17;20.58;;;;;;;;;;5052236;28;20047;-71
2022/05/04 03:18:13;;;;;;;25.80;20.00;;;;;;;;;;5052084;28;20060;-72
2022/05/04 03:21:17;;;;;;;28.23;20.38;;;;;;;;;;5052014;28;20052;-71
2022/05/04 03:24:21;;;;;;;23.98;18.35;;;;;;;;;;5052093;28;20052;-71
2022/05/04 03:27:26;;;;;;;22.88;18.33;;;;;;;;;;5050904;28;20056;-71
2022/05/04 03:30:30;;;;;;;24.80;16.65;;;;;;;;;;5051925;28;20397;-71
2022/05/04 03:33:34;;;;;;;22.77;17.00;;;;;;;;;;5051588;28;20056;-71
2022/05/04 03:36:38;;;;;;;25.42;16.63;;;;;;;;;;5051101;28;20048;-71
2022/05/04 03:39:43;;;;;;;20.20;16.17;;;;;;;;;;5051920;28;20063;-71
2022/05/04 03:42:48;;;;;;;21.30;15.48;;;;;;;;;;5051503;28;20048;-71
2022/05/04 03:45:53;;;;;;;19.20;15.15;;;;;;;;;;5051688;28;20051;-70
2022/05/04 03:48:59;;;;;;;20.90;15.70;;;;;;;;;;5051790;28;20400;-71
2022/05/04 03:52:03;;;;;;;23.30;15.88;;;;;;;;;;5051536;28;20048;-71
2022/05/04 03:55:09;;;;;;;22.15;15.30;;;;;;;;;;5051798;28;20052;-71
2022/05/04 03:58:13;;;;;;;30.20;15.05;;;;;;;;;;5051384;28;20520;-72
2022/05/04 04:01:18;;;;;;;23.20;14.50;;;;;;;;;;5051681;28;20044;-71
2022/05/04 04:04:22;;;;;;;25.55;15.23;;;;;;;;;;5051736;28;20040;-70
2022/05/04 04:07:27;;;;;;;20.40;13.90;;;;;;;;;;5050722;28;20060;-71
2022/05/04 04:10:32;;;;;;;25.92;14.07;;;;;;;;;;5051688;28;20299;-70
2022/05/04 04:13:36;;;;;;;19.75;13.82;;;;;;;;;;5051404;28;20044;-71
2022/05/04 04:16:40;;;;;;;24.65;16.75;;;;;;;;;;5051436;28;20048;-71
2022/05/04 04:21:50;;;;;;;22.95;13.98;;;;;;;;;;5050642;28;20044;-71
2022/05/04 04:23:09;;;;;;;16.67;13.88;;;;;;;;;;5052096;28;20044;-71
2022/05/04 04:26:13;;;;;;;19.67;15.73;;;;;;;;;;5051832;28;20048;-71
2022/05/04 04:29:20;;;;;;;20.50;16.50;;;;;;;;;;5051773;28;20047;-71
2022/05/04 04:32:24;;;;;;;22.13;14.55;;;;;;;;;;5039939;28;20396;-71
2022/05/04 04:35:29;;;;;;;23.80;15.40;;;;;;;;;;5051117;28;20048;-72
2022/05/04 04:38:34;;;;;;;19.65;15.15;;;;;;;;;;5050858;28;20060;-71
2022/05/04 04:41:39;;;;;;;24.75;15.52;;;;;;;;;;5028063;28;20059;-70
2022/05/04 04:44:43;;;;;;;23.20;15.05;;;;;;;;;;5050846;28;20400;-70
2022/05/04 04:47:48;;;;;;;17.60;14.38;;;;;;;;;;5050629;28;20059;-70
2022/05/04 04:50:52;;;;;;;20.83;13.82;;;;;;;;;;5050562;28;20059;-70
2022/05/04 04:53:57;;;;;;;18.35;14.10;;;;;;;;;;5050915;28;20527;-71
2022/05/04 04:57:01;;;;;;;24.60;15.02;;;;;;;;;;5027446;28;20591;-71
2022/05/04 05:00:07;;;;;;;27.27;13.60;;;;;;;;;;5050865;28;20060;-71
2022/05/04 05:03:11;;;;;;;27.05;13.75;;;;;;;;;;5050777;28;20036;-70
2022/05/04 05:06:18;;;;;;;21.70;14.00;;;;;;;;;;5050725;28;20416;-71
2022/05/04 05:09:23;;;;;;;20.65;14.45;;;;;;;;;;5050375;28;20052;-71
2022/05/04 05:12:27;;;;;;;20.60;14.45;;;;;;;;;;5050427;28;20048;-71
2022/05/04 05:18:56;;;;;;;23.75;15.20;;;;;;;;;;5050277;28;20044;-71
2022/05/04 05:22:01;;;;;;;29.05;16.35;;;;;;;;;;5050388;28;20075;-71
2022/05/04 05:25:05;;;;;;;21.63;17.38;;;;;;;;;;5049749;28;20396;-71
2022/05/04 05:28:10;;;;;;;25.77;16.83;;;;;;;;;;5050769;28;20043;-70
2022/05/04 05:31:14;;;;;;;27.38;17.05;;;;;;;;;;5051098;28;20060;-72
2022/05/04 05:34:19;;;;;;;28.05;16.65;;;;;;;;;;5051449;28;20056;-71
2022/05/04 05:37:23;;;;;;;30.48;16.95;;;;;;;;;;5049714;28;20056;-71
2022/05/04 05:40:27;;;;;;;22.02;17.27;;;;;;;;;;5038485;28;20048;-63
2022/05/04 05:43:31;;;;;;;27.67;17.45;;;;;;;;;;5050078;28;20048;-65
2022/05/04 05:46:36;;;;;;;24.52;17.58;;;;;;;;;;5051673;28;20048;-65
2022/05/04 05:49:41;;;;;;;25.33;18.63;;;;;;;;;;5053769;28;20048;-66
2022/05/04 05:52:45;;;;;;;32.90;18.60;;;;;;;;;;5052764;28;20052;-66
2022/05/04 05:55:50;;;;;;;25.10;18.73;;;;;;;;;;5053700;28;20052;-65
2022/05/04 05:58:54;;;;;;;26.77;18.63;;;;;;;;;;5053524;28;20052;-65
2022/05/04 06:01:58;;;;;;;32.35;19.42;;;;;;;;;;5053085;28;20040;-65
2022/05/04 06:05:03;;;;;;;32.17;20.05;;;;;;;;;;5053251;28;20310;-65
2022/05/04 06:08:09;;;;;;;28.98;20.33;;;;;;;;;;5052294;28;20064;-65
2022/05/04 06:11:13;;;;;;;33.30;20.85;;;;;;;;;;5052846;28;20048;-66
2022/05/04 06:14:18;;;;;;;26.75;20.00;;;;;;;;;;5053108;28;20637;-66
2022/05/04 06:17:22;;;;;;;35.47;18.98;;;;;;;;;;5053141;28;20039;-65
2022/05/04 06:20:27;;;;;;;28.75;20.02;;;;;;;;;;5053539;28;20056;-65
2022/05/04 06:23:31;;;;;;;33.92;20.35;;;;;;;;;;5053040;28;20044;-65
2022/05/04 06:26:36;;;;;;;24.42;17.60;;;;;;;;;;5053415;28;20044;-65
2022/05/04 06:36:26;;;;;;;28.73;19.73;;;;;;;;;;5052686;28;20044;-65
2022/05/04 06:39:30;;;;;;;25.77;18.52;;;;;;;;;;5051294;28;20604;-65
2022/05/04 06:42:35;;;;;;;23.48;15.77;;;;;;;;;;5051936;28;20044;-63
2022/05/04 06:45:39;;;;;;;26.02;16.13;;;;;;;;;;5052352;28;20392;-62
2022/05/04 06:48:45;;;;;;;26.88;15.23;;;;;;;;;;5052376;28;20044;-64
2022/05/04 06:51:50;;;;;;;25.55;16.13;;;;;;;;;;5051841;28;20044;-62
2022/05/04 06:54:54;;;;;;;24.55;16.58;;;;;;;;;;5052242;28;20056;-63
2022/05/04 06:57:59;;;;;;;22.40;14.77;;;;;;;;;;5051561;28;20056;-64
2022/05/04 07:01:06;;;;;;;22.25;15.57;;;;;;;;;;5039811;28;20044;-65
2022/05/04 07:04:11;;;;;;;35.67;15.10;;;;;;;;;;5051310;28;20044;-65
2022/05/04 07:07:15;;;;;;;20.63;13.95;;;;;;;;;;5052328;28;20396;-64
2022/05/04 07:10:20;;;;;;;14.45;12.18;;;;;;;;;;5052068;28;20299;-65
2022/05/04 07:13:24;;;;;;;18.23;12.27;;;;;;;;;;5051043;28;20052;-64
2022/05/04 07:16:28;;;;;;;21.92;12.18;;;;;;;;;;5051127;28;20393;-65
2022/05/04 07:19:32;;;;;;;14.25;10.32;;;;;;;;;;5051823;28;20060;-65
2022/05/04 07:22:37;;;;;;;13.07;8.18;;;;;;;;;;5051738;28;20044;-62
2022/05/04 07:25:41;;;;;;;14.32;9.23;;;;;;;;;;5051185;28;20068;-62
2022/05/04 07:28:45;;;;;;;13.38;8.57;;;;;;;;;;5051802;28;20037;-63
2022/05/04 07:31:50;;;;;;;11.80;9.45;;;;;;;;;;5052172;28;20037;-63
2022/05/04 07:34:54;;;;;;;10.85;8.23;;;;;;;;;;5052073;28;20496;-64
2022/05/04 07:37:58;;;;;;;15.10;8.88;;;;;;;;;;5051708;28;20299;-64
2022/05/04 07:44:26;;;;;;;15.70;8.65;;;;;;;;;;5051748;28;20046;-65
2022/05/04 07:47:34;;;;;;;9.73;6.93;;;;;;;;;;5039635;28;20037;-64
2022/05/04 07:50:38;;;;;;;11.85;8.70;;;;;;;;;;5051259;28;20037;-63
2022/05/04 07:53:42;;;;;;;12.63;9.25;;;;;;;;;;5051526;28;20037;-63
2022/05/04 07:56:47;;;;;;;16.17;10.15;;;;;;;;;;5051178;28;20041;-63
2022/05/04 08:06:37;;;;;;;11.93;8.60;;;;;;;;;;5051383;28;20052;-63
2022/05/04 08:09:42;;;;;;;14.30;9.18;;;;;;;;;;5049311;28;20052;-63
2022/05/04 08:12:47;;;;;;;15.63;9.57;;;;;;;;;;5051297;28;20404;-63
2022/05/04 08:15:51;;;;;;;18.20;8.82;;;;;;;;;;5050731;28;20033;-67
2022/05/04 08:18:56;;;;;;;9.13;7.32;;;;;;;;;;5050937;28;20049;-65
2022/05/04 08:22:00;;;;;;;10.48;6.60;;;;;;;;;;5050945;28;20480;-65
2022/05/04 08:25:05;;;;;;;9.80;6.50;;;;;;;;;;5050295;28;20496;-65
2022/05/04 08:28:12;;;;;;;13.18;8.48;;;;;;;;;;5050900;28;20472;-62
2022/05/04 08:31:17;;;;;;;13.98;7.95;;;;;;;;;;5050478;28;20049;-65
2022/05/04 08:34:21;;;;;;;12.63;8.07;;;;;;;;;;5050002;28;20032;-65
2022/05/04 08:37:29;;;;;;;15.98;7.88;;;;;;;;;;5050547;28;20070;-65
2022/05/04 08:40:33;;;;;;;10.27;6.95;;;;;;;;;;5051059;28;20045;-66
2022/05/04 08:43:39;;;;;;;15.45;9.07;;;;;;;;;;5050453;28;20033;-65
2022/05/04 08:46:44;;;;;;;13.23;8.25;;;;;;;;;;5049975;28;20507;-68
2022/05/04 08:49:49;;;;;;;11.82;7.38;;;;;;;;;;5050509;28;20283;-65
2022/05/04 08:52:54;;;;;;;14.32;8.80;;;;;;;;;;5050701;28;20053;-64
2022/05/04 08:55:59;;;;;;;14.77;8.20;;;;;;;;;;5050454;28;20033;-64
2022/05/04 08:59:04;;;;;;;12.68;9.02;;;;;;;;;;5050294;28;20144;-65
2022/05/04 09:02:08;;;;;;;12.05;9.60;;;;;;;;;;5049737;28;20068;-63
2022/05/04 09:05:13;;;;;;;11.75;9.05;;;;;;;;;;5050681;28;20055;-66
2022/05/04 09:08:17;;;;;;;11.43;8.45;;;;;;;;;;5049444;28;20531;-63
2022/05/04 09:11:22;;;;;;;9.60;7.95;;;;;;;;;;5050668;28;20040;-67
2022/05/04 09:14:27;;;;;;;11.23;8.77;;;;;;;;;;5050070;28;20123;-63
2022/05/04 09:17:31;;;;;;;19.23;10.65;;;;;;;;;;5049660;28;20045;-63
2022/05/04 09:20:55;;;;;;;15.38;8.77;;;;;;;;;;5051848;28;20048;-64
2022/05/04 09:24:00;;;;;;;13.65;8.20;;;;;;;;;;5054504;28;20392;-64
2022/05/04 09:27:05;;;;;;;18.50;9.98;;;;;;;;;;5054635;28;20036;-65
2022/05/04 09:30:09;;;;;;;12.48;8.77;;;;;;;;;;5054243;28;20444;-64
2022/05/04 09:33:21;;;;;;;14.52;8.85;;;;;;;;;;5054346;28;20037;-63
2022/05/04 09:36:32;;;;;;;11.70;6.57;;;;;;;;;;5055122;28;20037;-64
2022/05/04 09:46:32;;;;;;;14.07;9.27;;;;;;;;;;5054200;28;20051;-65
2022/05/04 09:49:37;;;;;;;14.27;8.93;;;;;;;;;;5054120;28;20037;-63
2022/05/04 09:52:49;;;;;;;12.07;7.93;;;;;;;;;;5054133;28;20037;-64
2022/05/04 09:55:55;;;;;;;11.40;7.00;;;;;;;;;;5053637;28;20027;-64
2022/05/04 09:58:59;;;;;;;8.15;5.90;;;;;;;;;;5053486;28;20065;-64
2022/05/04 10:02:07;;;;;;;15.35;7.38;;;;;;;;;;5053833;28;20041;-65
2022/05/04 10:05:12;;;;;;;10.98;6.90;;;;;;;;;;5053319;28;20192;-65
2022/05/04 10:08:16;;;;;;;7.32;6.10;;;;;;;;;;5053195;28;20128;-63
2022/05/04 10:11:21;;;;;;;13.18;7.45;;;;;;;;;;5052855;28;20048;-64
2022/05/04 10:14:26;;;;;;;10.57;7.38;;;;;;;;;;5052805;28;20048;-65
2022/05/04 10:17:30;;;;;;;11.20;6.45;;;;;;;;;;5053104;28;20056;-64
2022/05/04 10:20:39;;;;;;;17.95;9.15;;;;;;;;;;5053164;28;20437;-64
2022/05/04 10:23:45;;;;;;;11.85;8.20;;;;;;;;;;5053084;28;20396;-62
2022/05/04 10:26:49;;;;;;;8.95;6.68;;;;;;;;;;5053083;28;20033;-66
2022/05/04 10:33:37;;;;;;;7.95;4.55;;;;;;;;;;5052375;28;20041;-66
2022/05/04 10:36:45;;;;;;;12.73;6.82;;;;;;;;;;5052367;28;20040;-63
2022/05/04 10:40:01;;;;;;;9.20;5.65;;;;;;;;;;5051487;28;20045;-64
2022/05/04 10:43:12;;;;;;;8.50;6.45;;;;;;;;;;5051499;28;20037;-65
2022/05/04 10:46:17;;;;;;;7.60;5.50;;;;;;;;;;5052478;28;20045;-65
2022/05/04 10:49:34;;;;;;;9.80;5.20;;;;;;;;;;5052499;28;20032;-66
2022/05/04 10:52:48;;;;;;;7.88;5.78;;;;;;;;;;5052820;28;20473;-65
2022/05/04 10:55:56;;;;;;;28.52;7.00;;;;;;;;;;5051790;28;20045;-66
2022/05/04 10:59:00;;;;;;;11.95;6.95;;;;;;;;;;5052215;28;20052;-65
2022/05/04 11:02:06;;;;;;;7.22;5.38;;;;;;;;;;5052146;28;20059;-69
2022/05/04 11:05:14;;;;;;;11.48;6.75;;;;;;;;;;5052649;28;20041;-65
2022/05/04 11:08:25;;;;;;;10.27;4.93;;;;;;;;;;5052212;28;20045;-64
2022/05/04 11:11:30;;;;;;;13.82;9.48;;;;;;;;;;5052082;28;20045;-64
2022/05/04 11:14:35;;;;;;;12.57;9.77;;;;;;;;;;5051864;28;20385;-64
2022/05/04 11:17:39;;;;;;;14.07;9.35;;;;;;;;;;5051551;28;20059;-64
2022/05/04 11:20:46;;;;;;;12.60;9.30;;;;;;;;;;5051853;28;20496;-63
2022/05/04 11:23:52;;;;;;;14.07;12.15;;;;;;;;;;5051674;28;20033;-63
2022/05/04 11:26:56;;;;;;;15.68;11.27;;;;;;;;;;5052129;28;20044;-64
2022/05/04 11:30:03;;;;;;;20.17;12.02;;;;;;;;;;5051846;28;20044;-65
2022/05/04 11:33:12;;;;;;;19.08;12.65;;;;;;;;;;5051640;28;20048;-63
2022/05/04 11:36:19;;;;;;;20.17;12.45;;;;;;;;;;5051852;28;20048;-63
2022/05/04 11:39:24;;;;;;;15.30;12.68;;;;;;;;;;5051837;28;20400;-64
2022/05/04 11:42:28;;;;;;;13.43;9.20;;;;;;;;;;5051778;28;20059;-64
2022/05/04 11:45:33;;;;;;;16.30;10.70;;;;;;;;;;5051484;28;20045;-64
2022/05/04 11:48:38;;;;;;;17.88;12.45;;;;;;;;;;5051810;28;20314;-64
2022/05/04 11:51:42;;;;;;;15.48;11.27;;;;;;;;;;5051546;28;20039;-64
2022/05/04 11:54:47;;;;;;;22.27;13.73;;;;;;;;;;5051525;28;20052;-64
2022/05/04 11:57:51;;;;;;;20.30;13.15;;;;;;;;;;5051290;28;20056;-63
2022/05/04 12:00:56;;;;;;;18.60;12.23;;;;;;;;;;5051620;28;20044;-63
2022/05/04 12:04:01;;;;;;;16.38;9.38;;;;;;;;;;5051399;28;20051;-64
2022/05/04 12:07:05;;;;;;;13.50;11.07;;;;;;;;;;5051094;28;20037;-64
2022/05/04 12:10:11;;;;;;;12.38;10.38;;;;;;;;;;5050785;28;20511;-64
2022/05/04 12:13:21;;;;;;;16.17;9.77;;;;;;;;;;5051364;28;20385;-63
2022/05/04 12:16:26;;;;;;;13.50;9.75;;;;;;;;;;5050409;28;20052;-64
2022/05/04 12:19:30;;;;;;;15.77;10.63;;;;;;;;;;5050019;28;20366;-62
2022/05/04 12:22:35;;;;;;;9.52;7.53;;;;;;;;;;5050762;28;20107;-62
2022/05/04 12:25:40;;;;;;;17.70;11.18;;;;;;;;;;5050738;28;20029;-62
2022/05/04 12:35:32;;;;;;;18.17;10.65;;;;;;;;;;5050043;28;20052;-63
2022/05/04 12:38:37;;;;;;;35.50;11.75;;;;;;;;;;5049998;28;20500;-64
2022/05/04 12:41:45;;;;;;;9.88;8.32;;;;;;;;;;5050558;28;20048;-62
2022/05/04 12:44:50;;;;;;;12.20;8.63;;;;;;;;;;5051051;28;20049;-64
2022/05/04 12:47:55;;;;;;;9.40;7.68;;;;;;;;;;5050958;28;20032;-63
2022/05/04 12:51:00;;;;;;;18.88;8.55;;;;;;;;;;5050946;28;20041;-63
2022/05/04 12:54:04;;;;;;;12.38;6.65;;;;;;;;;;5050515;28;20044;-64
2022/05/04 12:57:09;;;;;;;12.73;8.75;;;;;;;;;;5054644;28;20053;-68
2022/05/04 13:00:14;;;;;;;14.13;9.32;;;;;;;;;;5053835;28;20049;-64
2022/05/04 13:03:18;;;;;;;10.93;7.07;;;;;;;;;;5054040;28;20032;-64
2022/05/04 13:06:22;;;;;;;13.18;8.88;;;;;;;;;;5054848;28;20060;-65
2022/05/04 13:09:28;;;;;;;12.25;7.82;;;;;;;;;;5053491;28;20562;-65
2022/05/04 13:12:32;;;;;;;12.52;7.88;;;;;;;;;;5054510;28;20044;-64
2022/05/04 13:15:37;;;;;;;19.08;8.65;;;;;;;;;;5054750;28;20038;-65
2022/05/04 13:18:42;;;;;;;17.67;9.93;;;;;;;;;;5054080;28;20040;-63
2022/05/04 13:21:46;;;;;;;19.77;8.07;;;;;;;;;;5054341;28;20041;-65
2022/05/04 13:24:51;;;;;;;17.02;8.27;;;;;;;;;;5053318;28;20168;-64
2022/05/04 13:27:56;;;;;;;17.13;7.40;;;;;;;;;;5054435;28;20389;-64
2022/05/04 13:31:00;;;;;;;14.75;8.25;;;;;;;;;;5054151;28;20040;-65
2022/05/04 13:34:04;;;;;;;13.73;7.20;;;;;;;;;;5053980;28;20037;-64
2022/05/04 13:37:08;;;;;;;21.80;8.98;;;;;;;;;;5054068;28;20032;-64
2022/05/04 13:40:14;;;;;;;12.82;7.13;;;;;;;;;;5054133;28;20048;-66
2022/05/04 13:43:19;;;;;;;8.80;6.10;;;;;;;;;;5054502;28;20043;-67
2022/05/04 13:46:24;;;;;;;18.90;6.60;;;;;;;;;;5054084;28;20374;-66
2022/05/04 13:49:28;;;;;;;16.73;6.18;;;;;;;;;;5053916;28;20040;-68
2022/05/04 13:55:56;;;;;;;15.80;5.47;;;;;;;;;;5053507;28;20037;-66
2022/05/04 13:59:01;;;;;;;15.18;5.28;;;;;;;;;;5053654;28;20056;-66
2022/05/04 14:02:06;;;;;;;13.98;5.28;;;;;;;;;;5053659;28;20033;-67
2022/05/04 14:05:10;;;;;;;10.13;5.28;;;;;;;;;;5052611;28;20389;-66
2022/05/04 14:08:15;;;;;;;13.00;5.00;;;;;;;;;;5052362;28;20041;-67
2022/05/04 14:11:20;;;;;;;10.60;5.80;;;;;;;;;;5053111;28;20033;-65
2022/05/04 14:17:47;;;;;;;17.25;6.07;;;;;;;;;;5053361;28;20041;-67
2022/05/04 14:20:52;;;;;;;14.75;6.05;;;;;;;;;;5053365;28;20404;-64
2022/05/04 14:23:56;;;;;;;8.50;5.57;;;;;;;;;;5053940;28;20500;-65
2022/05/04 14:27:00;;;;;;;7.97;5.10;;;;;;;;;;5052528;28;20033;-64
2022/05/04 14:30:07;;;;;;;16.52;5.70;;;;;;;;;;5051808;28;20037;-66
2022/05/04 14:33:11;;;;;;;12.02;4.90;;;;;;;;;;5053107;28;20452;-64
2022/05/04 14:36:16;;;;;;;14.10;4.82;;;;;;;;;;5051869;28;20037;-68
2022/05/04 14:39:20;;;;;;;6.90;4.95;;;;;;;;;;5040753;28;20064;-69
2022/05/04 14:42:25;;;;;;;10.70;4.85;;;;;;;;;;5052113;28;20033;-65
2022/05/04 14:45:29;;;;;;;10.93;4.20;;;;;;;;;;5052260;28;20053;-65
2022/05/04 14:48:33;;;;;;;7.88;4.30;;;;;;;;;;5051958;28;20029;-64
2022/05/04 14:51:39;;;;;;;7.90;4.10;;;;;;;;;;5052861;28;20049;-66
2022/05/04 14:54:43;;;;;;;15.82;4.65;;;;;;;;;;5052418;28;20477;-65
2022/05/04 14:57:47;;;;;;;10.15;4.60;;;;;;;;;;5050482;28;20044;-64
2022/05/04 15:00:53;;;;;;;11.88;4.60;;;;;;;;;;5051410;28;20207;-65
2022/05/04 15:07:19;;;;;;;11.13;5.30;;;;;;;;;;5049466;28;20041;-65
2022/05/04 15:10:24;;;;;;;7.75;4.10;;;;;;;;;;5050982;28;20049;-66
2022/05/04 15:13:28;;;;;;;22.65;6.75;;;;;;;;;;5051079;28;20041;-66
2022/05/04 15:16:32;;;;;;;8.38;4.90;;;;;;;;;;5051620;28;20052;-65
2022/05/04 15:19:37;;;;;;;13.65;5.78;;;;;;;;;;5051214;28;20052;-66
2022/05/04 15:22:41;;;;;;;10.00;4.38;;;;;;;;;;5051502;28;20048;-65
2022/05/04 15:25:45;;;;;;;8.68;4.60;;;;;;;;;;5052023;28;20037;-68
2022/05/04 15:28:50;;;;;;;10.60;4.70;;;;;;;;;;5050862;28;20191;-64
2022/05/04 15:31:54;;;;;;;14.48;4.80;;;;;;;;;;5051808;28;20044;-67
2022/05/04 15:34:59;;;;;;;18.30;4.85;;;;;;;;;;5051981;28;20048;-67
2022/05/04 15:38:03;;;;;;;7.65;3.83;;;;;;;;;;5051617;28;20041;-67
2022/05/04 15:41:07;;;;;;;10.77;4.38;;;;;;;;;;5051561;28;20045;-68
2022/05/04 15:44:12;;;;;;;6.97;3.72;;;;;;;;;;5051476;28;20041;-67
2022/05/04 15:47:16;;;;;;;7.25;4.50;;;;;;;;;;5051525;28;20362;-66
2022/05/04 15:50:21;;;;;;;12.38;4.80;;;;;;;;;;5050659;28;20033;-64
2022/05/04 15:53:25;;;;;;;15.80;5.20;;;;;;;;;;5050924;28;20049;-65
2022/05/04 15:56:29;;;;;;;16.15;4.32;;;;;;;;;;5051114;28;20033;-66
2022/05/04 15:59:34;;;;;;;8.63;4.45;;;;;;;;;;5050967;28;20048;-65
2022/05/04 16:06:01;;;;;;;14.25;6.03;;;;;;;;;;5051152;28;20071;-67
2022/05/04 16:09:09;;;;;;;8.35;4.97;;;;;;;;;;5050444;28;20599;-66
2022/05/04 16:12:13;;;;;;;13.85;4.50;;;;;;;;;;5050802;28;20041;-64
2022/05/04 16:15:21;;;;;;;10.80;4.93;;;;;;;;;;5051051;28;20044;-66
2022/05/04 16:21:49;;;;;;;6.72;4.75;;;;;;;;;;5051358;28;20037;-64
2022/05/04 16:24:54;;;;;;;13.90;6.60;;;;;;;;;;5050663;28;20477;-63
2022/05/04 16:27:58;;;;;;;14.07;5.47;;;;;;;;;;5050905;28;20044;-63
2022/05/04 16:31:02;;;;;;;9.60;4.75;;;;;;;;;;5049885;28;20048;-63
2022/05/04 16:34:07;;;;;;;9.68;4.72;;;;;;;;;;5051151;28;20032;-63
2022/05/04 16:37:12;;;;;;;17.05;5.25;;;;;;;;;;5050673;28;20048;-63
2022/05/04 16:40:16;;;;;;;9.02;5.07;;;;;;;;;;5050644;28;20062;-63
2022/05/04 16:43:21;;;;;;;15.35;5.03;;;;;;;;;;5050296;28;20029;-63
2022/05/04 16:46:25;;;;;;;10.88;4.82;;;;;;;;;;5050637;28;20037;-64
2022/05/04 16:49:29;;;;;;;10.82;4.88;;;;;;;;;;5051085;28;20037;-59
2022/05/04 16:52:34;;;;;;;10.98;4.82;;;;;;;;;;5050807;28;20044;-62
2022/05/04 16:55:38;;;;;;;10.00;4.85;;;;;;;;;;5050470;28;20390;-60
2022/05/04 16:58:44;;;;;;;9.90;4.70;;;;;;;;;;5050360;28;20367;-59
2022/05/04 17:01:49;;;;;;;17.58;5.63;;;;;;;;;;5050046;28;20461;-61
2022/05/04 17:04:54;;;;;;;8.18;4.43;;;;;;;;;;5050196;28;20318;-63
2022/05/04 17:07:58;;;;;;;25.65;6.55;;;;;;;;;;5049682;28;20033;-60
2022/05/04 17:11:03;;;;;;;16.27;5.32;;;;;;;;;;5050149;28;20052;-61
2022/05/04 17:14:07;;;;;;;18.48;5.80;;;;;;;;;;5049305;28;20519;-61
2022/05/04 17:17:11;;;;;;;18.95;5.38;;;;;;;;;;5050226;28;20413;-63
2022/05/04 17:20:16;;;;;;;22.77;6.13;;;;;;;;;;5050126;28;20049;-62
2022/05/04 17:23:21;;;;;;;27.60;4.90;;;;;;;;;;5050600;28;20044;-65
2022/05/04 17:26:27;;;;;;;12.75;4.97;;;;;;;;;;5050656;28;20480;-65
2022/05/04 17:29:32;;;;;;;14.85;5.00;;;;;;;;;;5050792;28;20052;-69
2022/05/04 17:39:22;;;;;;;17.60;5.60;;;;;;;;;;5050510;28;20049;-69
2022/05/04 17:42:28;;;;;;;11.35;5.28;;;;;;;;;;5054347;28;20566;-69
2022/05/04 17:45:33;;;;;;;12.40;5.65;;;;;;;;;;5041815;28;20477;-69
2022/05/04 17:48:38;;;;;;;11.80;5.75;;;;;;;;;;5053496;28;20377;-69
2022/05/04 17:51:43;;;;;;;20.83;6.90;;;;;;;;;;5054106;28;20040;-69
2022/05/04 17:54:49;;;;;;;25.35;5.93;;;;;;;;;;5054074;28;20612;-69
2022/05/04 17:57:53;;;;;;;23.83;5.57;;;;;;;;;;5054424;28;20054;-69
2022/05/04 18:00:58;;;;;;;30.50;6.95;;;;;;;;;;5053985;28;20048;-69
2022/05/04 18:04:02;;;;;;;21.98;5.95;;;;;;;;;;5052611;28;20029;-69
2022/05/04 18:07:06;;;;;;;8.93;5.13;;;;;;;;;;5053322;28;20473;-68
2022/05/04 18:10:11;;;;;;;11.43;5.35;;;;;;;;;;5053635;28;20041;-69
2022/05/04 18:13:15;;;;;;;13.45;6.40;;;;;;;;;;5053615;28;20052;-68
2022/05/04 18:16:19;;;;;;;11.80;5.75;;;;;;;;;;5053288;28;20041;-69
2022/05/04 18:19:24;;;;;;;12.25;5.38;;;;;;;;;;5053270;28;20072;-69
2022/05/04 18:22:29;;;;;;;8.07;6.22;;;;;;;;;;5052169;28;20382;-68
2022/05/04 18:25:34;;;;;;;11.90;6.10;;;;;;;;;;5052962;28;20036;-69
2022/05/04 18:28:38;;;;;;;10.50;6.57;;;;;;;;;;5053069;28;20060;-69
2022/05/04 18:31:43;;;;;;;8.10;5.85;;;;;;;;;;5052199;28;20045;-69
2022/05/04 18:34:48;;;;;;;18.48;8.52;;;;;;;;;;5053267;28;20044;-69
2022/05/04 18:37:53;;;;;;;16.75;6.97;;;;;;;;;;5053024;28;20045;-69
2022/05/04 18:40:57;;;;;;;18.27;7.50;;;;;;;;;;5053251;28;20489;-69
2022/05/04 18:44:03;;;;;;;18.88;7.28;;;;;;;;;;5052159;28;20036;-69
2022/05/04 18:47:08;;;;;;;16.05;6.47;;;;;;;;;;5052833;28;20043;-69
2022/05/04 18:50:12;;;;;;;16.63;8.05;;;;;;;;;;5051978;28;20037;-69
2022/05/04 18:53:18;;;;;;;19.75;9.18;;;;;;;;;;5051695;28;20033;-69
2022/05/04 18:56:24;;;;;;;18.52;9.13;;;;;;;;;;5051701;28;20040;-69
2022/05/04 18:59:28;;;;;;;21.75;9.15;;;;;;;;;;5052117;28;20051;-69
2022/05/04 19:02:33;;;;;;;23.27;9.35;;;;;;;;;;5052487;28;20037;-69
2022/05/04 19:05:40;;;;;;;14.43;8.82;;;;;;;;;;5052472;28;20045;-69
2022/05/04 19:08:44;;;;;;;14.52;9.00;;;;;;;;;;5051982;28;20061;-69
2022/05/04 19:11:48;;;;;;;15.50;8.77;;;;;;;;;;5052221;28;20482;-69